createdAt,value
2018-02-08T00:02:12.159Z,97.00
2018-02-08T00:04:39.680Z,80.45
2018-02-08T00:07:07.207Z,78.80
2018-02-08T00:09:34.705Z,87.80
2018-02-08T00:12:02.233Z,90.85
2018-02-08T00:14:29.733Z,84.68
2018-02-08T00:16:58.008Z,96.70
2018-02-08T00:19:26.317Z,86.60
2018-02-08T00:21:53.822Z,75.87
2018-02-08T00:24:21.363Z,82.90
2018-02-08T00:26:48.880Z,89.25
2018-02-08T00:29:16.397Z,83.57
2018-02-08T00:31:43.933Z,77.75
2018-02-08T00:34:11.452Z,82.25
2018-02-08T00:36:38.997Z,90.70
2018-02-08T00:39:07.280Z,79.53
2018-02-08T00:41:35.546Z,83.07
2018-02-08T00:44:03.829Z,85.20
2018-02-08T00:46:32.095Z,82.68
2018-02-08T00:49:00.383Z,92.72
2018-02-08T00:51:28.652Z,82.53
2018-02-08T00:53:57.029Z,77.82
2018-02-08T00:56:25.313Z,70.62
2018-02-08T00:58:53.592Z,77.78
2018-02-08T01:01:21.894Z,84.50
2018-02-08T01:03:49.395Z,74.07
2018-02-08T01:06:16.895Z,66.50
2018-02-08T01:08:44.418Z,83.30
2018-02-08T01:11:11.910Z,75.70
2018-02-08T01:13:39.422Z,73.82
2018-02-08T01:16:06.987Z,86.63
2018-02-08T01:18:34.504Z,74.57
2018-02-08T01:21:02.003Z,75.25
2018-02-08T01:23:29.517Z,84.28
2018-02-08T01:25:57.036Z,81.25
2018-02-08T01:28:25.318Z,69.62
2018-02-08T01:30:53.587Z,70.97
2018-02-08T01:33:21.865Z,80.15
2018-02-08T01:35:50.152Z,82.97
2018-02-08T01:38:18.433Z,86.18
2018-02-08T01:40:46.698Z,76.85
2018-02-08T01:43:14.978Z,78.57
2018-02-08T01:45:43.257Z,93.62
2018-02-08T01:48:11.547Z,86.20
2018-02-08T01:50:39.047Z,84.97
2018-02-08T01:53:06.571Z,90.85
2018-02-08T01:55:34.069Z,95.82
2018-02-08T01:58:01.589Z,94.37
2018-02-08T02:00:29.100Z,82.10
2018-02-08T02:02:56.619Z,91.03
2018-02-08T02:05:24.131Z,85.00
2018-02-08T02:07:52.427Z,85.85
2018-02-08T02:10:19.938Z,78.95
2018-02-08T02:12:47.467Z,100.65
2018-02-08T02:15:14.962Z,80.32
2018-02-08T02:17:42.487Z,83.82
2018-02-08T02:20:09.981Z,84.65
2018-02-08T02:22:37.521Z,99.90
2018-02-08T02:25:05.034Z,88.03
2018-02-08T02:27:32.549Z,83.43
2018-02-08T02:30:00.060Z,87.90
2018-02-08T02:32:27.597Z,72.20
2018-02-08T02:34:55.871Z,80.60
2018-02-08T02:37:24.164Z,69.53
2018-02-08T02:39:51.675Z,83.60
2018-02-08T02:42:19.199Z,75.37
2018-02-08T02:44:46.720Z,87.88
2018-02-08T02:47:15.025Z,84.82
2018-02-08T02:49:42.544Z,81.95
2018-02-08T02:52:10.076Z,88.50
2018-02-08T02:54:37.597Z,87.55
2018-02-08T02:57:05.137Z,100.20
2018-02-08T02:59:33.418Z,95.85
2018-02-08T03:02:01.720Z,84.93
2018-02-08T03:04:29.240Z,93.78
2018-02-08T03:06:57.539Z,80.65
2018-02-08T03:09:25.058Z,109.90
2018-02-08T03:11:52.569Z,92.32
2018-02-08T03:14:20.066Z,84.55
2018-02-08T03:16:47.571Z,87.82
2018-02-08T03:19:15.105Z,88.70
2018-02-08T03:21:43.383Z,80.30
2018-02-08T03:24:11.662Z,86.87
2018-02-08T03:26:39.931Z,82.05
2018-02-08T03:29:08.228Z,85.55
2018-02-08T03:31:35.750Z,81.50
2018-02-08T03:34:03.287Z,86.85
2018-02-08T03:36:30.780Z,96.93
2018-02-08T03:38:59.074Z,91.47
2018-02-08T03:41:27.337Z,82.15
2018-02-08T03:43:55.644Z,84.90
2018-02-08T03:46:23.161Z,80.90
2018-02-08T03:48:50.683Z,81.05
2018-02-08T03:51:18.200Z,85.55
2018-02-08T03:53:46.474Z,87.65
2018-02-08T03:56:14.733Z,85.60
2018-02-08T03:58:42.260Z,75.80
2018-02-08T04:01:09.762Z,85.70
2018-02-08T04:03:38.055Z,82.97
2018-02-08T04:06:05.554Z,91.47
2018-02-08T04:08:33.071Z,84.65
2018-02-08T04:11:00.570Z,64.78
2018-02-08T04:13:28.101Z,70.18
2018-02-08T04:15:55.615Z,78.30
2018-02-08T04:18:23.139Z,71.25
2018-02-08T04:20:50.710Z,75.95
2018-02-08T04:23:18.202Z,79.50
2018-02-08T04:25:46.493Z,65.45
2018-02-08T04:28:14.011Z,75.62
2018-02-08T04:30:41.540Z,89.20
2018-02-08T04:33:09.071Z,76.55
2018-02-08T04:35:36.575Z,77.37
2018-02-08T04:38:04.121Z,75.07
2018-02-08T04:40:43.374Z,72.82
2018-02-08T04:43:22.931Z,77.05
2018-02-08T04:46:02.296Z,84.80
2018-02-08T04:48:29.805Z,76.85
2018-02-08T04:50:57.315Z,87.35
2018-02-08T04:53:24.845Z,92.20
2018-02-08T04:55:52.355Z,76.85
2018-02-08T04:58:19.895Z,88.43
2018-02-08T05:00:47.403Z,86.55
2018-02-08T05:03:15.077Z,75.80
2018-02-08T05:05:43.373Z,86.00
2018-02-08T05:08:11.654Z,87.37
2018-02-08T05:10:39.926Z,95.50
2018-02-08T05:13:08.229Z,79.20
2018-02-08T05:15:35.735Z,82.10
2018-02-08T05:18:03.258Z,78.93
2018-02-08T05:20:30.769Z,76.00
2018-02-08T05:22:59.046Z,94.45
2018-02-08T05:25:27.319Z,90.60
2018-02-08T05:27:55.620Z,84.97
2018-02-08T05:30:23.121Z,82.60
2018-02-08T05:32:50.651Z,86.65
2018-02-08T05:35:18.154Z,86.93
2018-02-08T05:37:45.678Z,90.10
2018-02-08T05:40:13.187Z,97.68
2018-02-08T05:42:41.493Z,84.40
2018-02-08T05:45:09.003Z,90.93
2018-02-08T05:47:36.527Z,91.75
2018-02-08T05:50:04.040Z,100.80
2018-02-08T05:52:32.333Z,90.43
2018-02-08T05:54:59.853Z,100.45
2018-02-08T05:57:27.380Z,105.55
2018-02-08T05:59:54.874Z,96.40
2018-02-08T06:02:22.399Z,93.07
2018-02-08T06:04:50.049Z,100.28
2018-02-08T06:07:17.579Z,93.25
2018-02-08T06:09:45.845Z,107.28
2018-02-08T06:12:14.148Z,101.45
2018-02-08T06:14:41.714Z,91.20
2018-02-08T06:17:09.234Z,85.62
2018-02-08T06:19:36.730Z,85.90
2018-02-08T06:22:04.259Z,78.25
2018-02-08T06:24:32.545Z,80.95
2018-02-08T06:27:00.825Z,85.12
2018-02-08T06:29:28.349Z,77.72
2018-02-08T06:31:55.888Z,90.40
2018-02-08T06:34:23.408Z,78.53
2018-02-08T06:36:50.905Z,88.00
2018-02-08T06:39:18.425Z,99.47
2018-02-08T06:41:45.939Z,117.40
2018-02-08T06:44:13.479Z,102.15
2018-02-08T06:46:41.042Z,93.82
2018-02-08T06:49:08.538Z,85.20
2018-02-08T06:51:36.801Z,87.82
2018-02-08T06:54:04.342Z,86.30
2018-02-08T06:56:31.867Z,94.90
2018-02-08T06:58:59.407Z,101.07
2018-02-08T07:01:26.912Z,107.07
2018-02-08T07:03:54.453Z,115.90
2018-02-08T07:06:21.981Z,112.82
2018-02-08T07:08:49.517Z,99.32
2018-02-08T07:11:17.046Z,97.57
2018-02-08T07:13:44.589Z,95.10
2018-02-08T07:16:12.118Z,101.22
2018-02-08T07:18:39.668Z,105.37
2018-02-08T07:21:07.934Z,93.37
2018-02-08T07:23:36.221Z,125.93
2018-02-08T07:26:04.494Z,113.72
2018-02-08T07:28:32.777Z,94.97
2018-02-08T07:31:01.065Z,103.80
2018-02-08T07:33:28.592Z,91.47
2018-02-08T07:35:56.877Z,98.03
2018-02-08T07:38:25.172Z,96.82
2018-02-08T07:40:52.692Z,94.30
2018-02-08T07:43:20.220Z,91.12
2018-02-08T07:45:47.752Z,102.28
2018-02-08T07:48:15.265Z,91.07
2018-02-08T07:50:42.789Z,86.60
2018-02-08T07:53:10.333Z,95.72
2018-02-08T07:55:38.608Z,98.45
2018-02-08T07:58:06.134Z,102.32
2018-02-08T08:00:34.411Z,88.07
2018-02-08T08:03:02.722Z,100.32
2018-02-08T08:05:30.245Z,80.18
2018-02-08T08:07:58.529Z,88.57
2018-02-08T08:10:26.807Z,89.65
2018-02-08T08:12:55.112Z,102.35
2018-02-08T08:15:22.624Z,106.22
2018-02-08T08:17:50.928Z,87.65
2018-02-08T08:20:18.425Z,113.77
2018-02-08T08:22:45.954Z,131.30
2018-02-08T08:25:13.466Z,228.23
2018-02-08T08:27:41.069Z,270.30
2018-02-08T08:30:08.590Z,236.12
2018-02-08T08:32:36.132Z,189.30
2018-02-08T08:35:03.653Z,263.62
2018-02-08T08:37:31.188Z,107.70
2018-02-08T08:39:59.473Z,118.25
2018-02-08T08:42:27.008Z,119.78
2018-02-08T08:44:54.520Z,120.20
2018-02-08T08:47:22.049Z,121.20
2018-02-08T08:49:49.575Z,120.47
2018-02-08T08:52:17.106Z,115.15
2018-02-08T08:54:44.624Z,229.48
2018-02-08T08:57:12.156Z,204.07
2018-02-08T08:59:39.684Z,100.30
2018-02-08T09:02:07.251Z,105.78
2018-02-08T09:04:34.774Z,109.43
2018-02-08T09:07:02.299Z,99.72
2018-02-08T09:09:30.589Z,108.18
2018-02-08T09:11:58.881Z,103.75
2018-02-08T09:14:26.401Z,98.72
2018-02-08T09:16:53.905Z,95.38
2018-02-08T09:19:21.445Z,123.25
2018-02-08T09:21:48.941Z,97.20
2018-02-08T09:24:16.468Z,98.93
2018-02-08T09:26:44.518Z,111.93
2018-02-08T09:29:12.801Z,100.20
2018-02-08T09:31:41.088Z,99.47
2018-02-08T09:34:08.629Z,106.87
2018-02-08T09:36:36.915Z,97.10
2018-02-08T09:39:05.220Z,81.53
2018-02-08T09:41:32.718Z,92.35
2018-02-08T09:44:00.243Z,99.68
2018-02-08T09:46:27.777Z,87.47
2018-02-08T09:48:55.293Z,105.93
2018-02-08T09:51:22.794Z,100.50
2018-02-08T09:53:50.335Z,101.80
2018-02-08T09:56:18.619Z,96.60
2018-02-08T09:58:46.147Z,112.25
2018-02-08T10:01:13.650Z,99.22
2018-02-08T10:03:41.162Z,107.95
2018-02-08T10:06:08.703Z,100.55
2018-02-08T10:08:36.241Z,105.05
2018-02-08T10:11:03.764Z,91.18
2018-02-08T10:13:32.063Z,92.93
2018-02-08T10:16:00.465Z,103.30
2018-02-08T10:18:28.002Z,90.43
2018-02-08T10:20:55.523Z,111.60
2018-02-08T10:23:23.828Z,104.10
2018-02-08T10:25:51.360Z,93.37
2018-02-08T10:28:19.707Z,93.00
2018-02-08T10:30:47.257Z,98.93
2018-02-08T10:33:14.796Z,87.05
2018-02-08T10:35:42.301Z,90.80
2018-02-08T10:38:09.843Z,86.25
2018-02-08T10:40:37.390Z,104.63
2018-02-08T10:43:04.918Z,91.00
2018-02-08T10:45:32.436Z,95.28
2018-02-08T10:47:59.985Z,98.45
2018-02-08T10:50:27.493Z,92.20
2018-02-08T10:52:55.032Z,94.60
2018-02-08T10:55:23.323Z,84.50
2018-02-08T10:57:50.873Z,94.18
2018-02-08T11:00:19.164Z,92.80
2018-02-08T11:02:46.677Z,93.75
2018-02-08T11:05:14.189Z,92.53
2018-02-08T11:07:41.728Z,97.30
2018-02-08T11:10:09.253Z,114.65
2018-02-08T11:12:36.778Z,86.43
2018-02-08T11:15:04.279Z,93.28
2018-02-08T11:17:32.575Z,83.35
2018-02-08T11:20:00.861Z,94.20
2018-02-08T11:22:28.436Z,87.10
2018-02-08T11:24:55.947Z,87.40
2018-02-08T11:27:23.492Z,87.78
2018-02-08T11:29:50.989Z,87.20
2018-02-08T11:32:19.274Z,85.43
2018-02-08T11:34:46.774Z,104.43
2018-02-08T11:37:14.305Z,89.97
2018-02-08T11:39:41.812Z,91.80
2018-02-08T11:42:09.345Z,95.55
2018-02-08T11:44:37.619Z,118.62
2018-02-08T11:47:05.133Z,94.75
2018-02-08T11:49:33.407Z,78.78
2018-02-08T11:52:01.697Z,93.50
2018-02-08T11:54:29.209Z,87.00
2018-02-08T11:56:56.720Z,91.57
2018-02-08T11:59:24.235Z,94.35
2018-02-08T12:01:51.764Z,79.60
2018-02-08T12:04:20.064Z,86.00
2018-02-08T12:06:47.581Z,82.07
2018-02-08T12:09:15.114Z,73.37
2018-02-08T12:11:42.618Z,79.93
2018-02-08T12:14:10.158Z,78.43
2018-02-08T12:16:37.671Z,84.72
2018-02-08T12:19:05.954Z,82.15
2018-02-08T12:21:34.243Z,88.80
2018-02-08T12:24:01.785Z,86.20
2018-02-08T12:26:30.047Z,81.37
2018-02-08T12:28:57.581Z,85.85
2018-02-08T12:31:25.130Z,72.70
2018-02-08T12:33:52.642Z,78.12
2018-02-08T12:36:20.902Z,81.90
2018-02-08T12:38:48.423Z,88.97
2018-02-08T12:41:15.936Z,88.37
2018-02-08T12:43:44.218Z,87.55
2018-02-08T12:46:12.552Z,74.53
2018-02-08T12:48:40.078Z,76.75
2018-02-08T12:51:07.575Z,83.68
2018-02-08T12:53:35.090Z,84.40
2018-02-08T12:56:02.611Z,90.45
2018-02-08T12:58:30.899Z,89.93
2018-02-08T13:00:59.219Z,82.03
2018-02-08T13:03:26.769Z,83.55
2018-02-08T13:05:54.276Z,84.82
2018-02-08T13:08:22.571Z,90.20
2018-02-08T13:10:50.834Z,85.80
2018-02-08T13:13:19.134Z,83.28
2018-02-08T13:15:46.644Z,89.82
2018-02-08T13:18:14.153Z,83.22
2018-02-08T13:20:41.655Z,89.82
2018-02-08T13:23:09.180Z,95.62
2018-02-08T13:25:36.693Z,90.05
2018-02-08T13:28:04.277Z,98.03
2018-02-08T13:30:32.544Z,99.55
2018-02-08T13:33:00.837Z,86.68
2018-02-08T13:35:28.346Z,86.40
2018-02-08T13:37:55.882Z,98.72
2018-02-08T13:40:39.085Z,97.55
2018-02-08T13:43:06.615Z,100.60
2018-02-08T13:45:34.886Z,92.62
2018-02-08T13:48:13.227Z,90.97
2018-02-08T13:54:03.243Z,90.95
2018-02-08T13:56:36.398Z,88.40
2018-02-08T13:59:10.494Z,94.85
2018-02-08T14:01:37.986Z,85.65
2018-02-08T14:04:05.501Z,85.62
2018-02-08T14:06:33.001Z,102.30
2018-02-08T14:09:01.278Z,95.50
2018-02-08T14:11:28.780Z,92.97
2018-02-08T14:13:56.299Z,99.78
2018-02-08T14:16:23.821Z,97.82
2018-02-08T14:18:51.338Z,96.78
2018-02-08T14:21:18.840Z,89.53
2018-02-08T14:23:46.370Z,97.15
2018-02-08T14:26:14.639Z,98.05
2018-02-08T14:28:42.169Z,101.20
2018-02-08T14:31:09.687Z,93.22
2018-02-08T14:33:37.232Z,88.43
2018-02-08T14:36:05.000Z,95.12
2018-02-08T14:38:33.309Z,94.32
2018-02-08T14:41:01.566Z,91.07
2018-02-08T14:43:29.128Z,100.57
2018-02-08T14:45:56.622Z,102.00
2018-02-08T14:48:24.148Z,105.45
2018-02-08T14:50:51.659Z,103.68
2018-02-08T14:53:19.203Z,125.47
2018-02-08T14:55:46.730Z,103.53
2018-02-08T14:58:15.016Z,89.35
2018-02-08T15:00:43.291Z,93.80
2018-02-08T15:03:11.580Z,96.85
2018-02-08T15:05:39.107Z,93.20
2018-02-08T15:08:06.641Z,88.90
2018-02-08T15:10:34.921Z,89.22
2018-02-08T15:13:02.452Z,107.40
2018-02-08T15:15:30.008Z,101.93
2018-02-08T15:17:57.515Z,99.47
2018-02-08T15:20:25.030Z,89.35
2018-02-08T15:22:52.562Z,90.47
2018-02-08T15:25:20.067Z,92.68
2018-02-08T15:27:48.369Z,100.75
2018-02-08T15:30:15.880Z,89.90
2018-02-08T15:32:43.399Z,100.20
2018-02-08T15:35:11.763Z,100.10
2018-02-08T15:37:39.278Z,105.40
2018-02-08T15:40:06.782Z,88.93
2018-02-08T15:42:34.317Z,96.00
2018-02-08T15:45:02.592Z,89.25
2018-02-08T15:47:30.134Z,86.63
2018-02-08T15:49:57.680Z,89.87
2018-02-08T15:52:25.219Z,91.95
2018-02-08T15:54:52.727Z,99.93
2018-02-08T15:57:20.234Z,94.13
2018-02-08T15:59:47.752Z,100.30
2018-02-08T16:02:15.281Z,111.50
2018-02-08T16:04:42.792Z,105.57
2018-02-08T16:07:11.105Z,104.53
2018-02-08T16:09:38.616Z,100.55
2018-02-08T16:12:06.193Z,114.60
2018-02-08T16:14:34.472Z,113.50
2018-02-08T16:17:02.748Z,110.97
2018-02-08T16:19:31.049Z,120.47
2018-02-08T16:21:58.551Z,112.10
2018-02-08T16:24:26.074Z,101.70
2018-02-08T16:26:53.599Z,121.18
2018-02-08T16:29:21.887Z,103.90
2018-02-08T16:31:49.403Z,114.40
2018-02-08T16:34:16.937Z,113.50
2018-02-08T16:36:44.455Z,110.22
2018-02-08T16:39:12.758Z,98.10
2018-02-08T16:41:40.294Z,108.87
2018-02-08T16:44:07.824Z,115.97
2018-02-08T16:46:35.352Z,106.22
2018-02-08T16:49:02.885Z,110.55
2018-02-08T16:51:30.449Z,107.60
2018-02-08T16:53:57.992Z,114.35
2018-02-08T16:56:25.515Z,117.40
2018-02-08T16:58:53.057Z,115.60
2018-02-08T17:01:20.565Z,116.50
2018-02-08T17:03:48.156Z,115.72
2018-02-08T17:06:15.658Z,112.55
2018-02-08T17:08:43.195Z,106.35
2018-02-08T17:11:10.706Z,106.00
2018-02-08T17:13:38.237Z,109.87
2018-02-08T17:16:06.528Z,114.62
2018-02-08T17:18:34.835Z,123.18
2018-02-08T17:21:02.346Z,119.43
2018-02-08T17:23:29.862Z,133.98
2018-02-08T17:25:57.384Z,114.85
2018-02-08T17:28:25.670Z,141.98
2018-02-08T17:30:53.212Z,131.00
2018-02-08T17:33:21.524Z,124.70
2018-02-08T17:35:49.045Z,111.12
2018-02-08T17:38:17.361Z,121.53
2018-02-08T17:40:44.884Z,117.20
2018-02-08T17:43:13.189Z,148.05
2018-02-08T17:45:40.697Z,168.82
2018-02-08T17:48:08.234Z,176.90
2018-02-08T17:50:35.746Z,154.65
2018-02-08T17:53:03.274Z,262.08
2018-02-08T17:55:30.791Z,163.12
2018-02-08T17:57:58.341Z,204.00
2018-02-08T18:00:25.845Z,182.37
2018-02-08T18:02:53.367Z,155.27
2018-02-08T18:05:20.883Z,162.73
2018-02-08T18:07:49.189Z,249.62
2018-02-08T18:10:16.693Z,171.48
2018-02-08T18:12:44.246Z,139.57
2018-02-08T18:15:12.532Z,150.35
2018-02-08T18:17:40.080Z,138.27
2018-02-08T18:20:07.582Z,128.57
2018-02-08T18:22:35.880Z,134.85
2018-02-08T18:25:03.388Z,139.07
2018-02-08T18:27:30.928Z,149.02
2018-02-08T18:29:58.448Z,139.50
2018-02-08T18:32:25.997Z,143.80
2018-02-08T18:34:53.510Z,116.40
2018-02-08T18:37:21.865Z,129.87
2018-02-08T18:39:49.351Z,127.75
2018-02-08T18:42:16.884Z,120.40
2018-02-08T18:44:44.389Z,137.70
2018-02-08T18:47:12.683Z,131.70
2018-02-08T18:49:40.954Z,126.00
2018-02-08T18:52:09.277Z,112.22
2018-02-08T18:54:36.788Z,118.87
2018-02-08T18:57:05.075Z,124.97
2018-02-08T18:59:32.593Z,133.55
2018-02-08T19:02:00.104Z,138.68
2018-02-08T19:04:27.642Z,109.43
2018-02-08T19:06:55.928Z,126.07
2018-02-08T19:09:23.457Z,134.37
2018-02-08T19:11:50.961Z,126.60
2018-02-08T19:14:18.505Z,128.62
2018-02-08T19:16:46.030Z,137.07
2018-02-08T19:19:13.546Z,121.55
2018-02-08T19:21:41.073Z,127.18
2018-02-08T19:24:08.597Z,121.78
2018-02-08T19:26:36.127Z,124.78
2018-02-08T19:29:03.688Z,119.97
2018-02-08T19:31:31.203Z,110.68
2018-02-08T19:33:59.485Z,111.10
2018-02-08T19:36:26.995Z,123.80
2018-02-08T19:38:54.536Z,126.12
2018-02-08T19:41:22.062Z,113.85
2018-02-08T19:43:49.592Z,117.57
2018-02-08T19:46:17.124Z,126.60
2018-02-08T19:48:44.642Z,116.12
2018-02-08T19:51:12.141Z,115.07
2018-02-08T19:53:39.663Z,120.75
2018-02-08T19:56:07.184Z,109.53
2018-02-08T19:58:34.706Z,121.35
2018-02-08T20:01:02.216Z,119.03
2018-02-08T20:03:30.525Z,113.15
2018-02-08T20:05:58.063Z,124.90
2018-02-08T20:08:25.596Z,124.50
2018-02-08T20:10:53.098Z,124.00
2018-02-08T20:13:20.638Z,134.80
2018-02-08T20:15:48.169Z,156.95
2018-02-08T20:18:15.716Z,123.28
2018-02-08T20:20:43.233Z,128.65
2018-02-08T20:23:10.750Z,118.03
2018-02-08T20:25:42.687Z,115.82
2018-02-08T20:28:10.286Z,129.90
2018-02-08T20:30:38.562Z,126.18
2018-02-08T20:33:06.884Z,105.70
2018-02-08T20:35:34.412Z,105.07
2018-02-08T20:38:01.977Z,115.18
2018-02-08T20:40:31.025Z,121.85
2018-02-08T20:43:04.252Z,122.15
2018-02-08T20:45:32.544Z,107.15
2018-02-08T20:48:00.082Z,119.47
2018-02-08T20:50:28.349Z,130.68
2018-02-08T20:52:56.634Z,126.38
2018-02-08T20:55:24.952Z,120.78
2018-02-08T20:57:52.482Z,139.75
2018-02-08T21:00:20.012Z,131.60
2018-02-08T21:02:48.327Z,131.27
2018-02-08T21:05:15.871Z,127.60
2018-02-08T21:07:43.395Z,115.12
2018-02-08T21:10:10.908Z,123.32
2018-02-08T21:12:38.445Z,116.22
2018-02-08T21:15:06.743Z,129.95
2018-02-08T21:17:34.265Z,127.47
2018-02-08T21:20:02.557Z,123.10
2018-02-08T21:22:30.895Z,113.90
2018-02-08T21:24:58.412Z,121.03
2018-02-08T21:27:25.943Z,127.95
2018-02-08T21:29:53.457Z,131.50
2018-02-08T21:32:21.031Z,108.95
2018-02-08T21:34:48.557Z,124.60
2018-02-08T21:37:16.084Z,123.70
2018-02-08T21:39:44.358Z,135.88
2018-02-08T21:42:12.670Z,120.30
2018-02-08T21:44:40.178Z,132.48
2018-02-08T21:47:07.709Z,134.10
2018-02-08T21:49:35.242Z,118.47
2018-02-08T21:52:02.769Z,116.22
2018-02-08T21:54:31.074Z,118.37
2018-02-08T21:56:58.591Z,119.03
2018-02-08T21:59:26.905Z,116.82
2018-02-08T22:01:54.416Z,116.12
2018-02-08T22:04:21.952Z,109.05
2018-02-08T22:06:49.454Z,121.55
2018-02-08T22:09:17.757Z,120.32
2018-02-08T22:11:45.286Z,103.57
2018-02-08T22:14:13.583Z,119.60
2018-02-08T22:16:41.108Z,104.87
2018-02-08T22:19:08.630Z,110.28
2018-02-08T22:21:36.152Z,115.07
2018-02-08T22:24:03.693Z,106.93
2018-02-08T22:26:31.217Z,106.53
2018-02-08T22:28:58.749Z,115.62
2018-02-08T22:31:26.263Z,113.75
2018-02-08T22:33:53.804Z,109.00
2018-02-08T22:36:21.326Z,109.37
2018-02-08T22:38:48.854Z,108.30
2018-02-08T22:41:17.113Z,118.13
2018-02-08T22:43:44.640Z,98.87
2018-02-08T22:46:12.166Z,124.65
2018-02-08T22:48:39.715Z,120.37
2018-02-08T22:51:07.222Z,112.95
2018-02-08T22:53:34.760Z,108.70
2018-02-08T22:56:02.284Z,112.53
2018-02-08T22:58:30.576Z,116.28
2018-02-08T23:00:59.648Z,114.68
2018-02-08T23:03:27.941Z,127.68
2018-02-08T23:05:55.450Z,119.78
2018-02-08T23:08:22.994Z,129.10
2018-02-08T23:10:50.518Z,117.78
2018-02-08T23:13:18.057Z,131.93
2018-02-08T23:15:46.349Z,143.15
2018-02-08T23:18:13.892Z,132.48
2018-02-08T23:20:42.175Z,142.93
2018-02-08T23:23:10.464Z,137.98
2018-02-08T23:25:37.969Z,136.75
2018-02-08T23:28:05.500Z,127.40
2018-02-08T23:30:33.026Z,125.65
2018-02-08T23:33:01.329Z,125.82
2018-02-08T23:35:28.845Z,117.20
2018-02-08T23:37:56.370Z,128.87
2018-02-08T23:40:23.892Z,136.07
2018-02-08T23:42:51.415Z,139.05
2018-02-08T23:45:18.934Z,144.15
2018-02-08T23:47:46.472Z,132.48
2018-02-08T23:50:14.043Z,137.15
2018-02-08T23:52:41.593Z,122.80
2018-02-08T23:55:09.109Z,129.60
2018-02-08T23:57:36.625Z,140.50
